createdAt,value
2023-03-25T00:05:45.715Z,17.50
2023-03-25T00:13:51.558Z,17.50
2023-03-25T00:22:01.857Z,17.50
2023-03-25T00:30:08.753Z,17.50
2023-03-25T00:38:17.074Z,17.50
2023-03-25T00:46:23.817Z,17.60
2023-03-25T00:54:34.546Z,17.60
2023-03-25T01:02:40.968Z,17.60
2023-03-25T01:10:51.455Z,17.50
2023-03-25T01:18:57.527Z,17.40
2023-03-25T01:27:06.707Z,17.30
2023-03-25T01:35:13.852Z,17.20
2023-03-25T01:43:22.309Z,17.20
2023-03-25T01:51:32.096Z,17.10
2023-03-25T01:59:41.323Z,17.10
2023-03-25T02:07:50.612Z,17.10
2023-03-25T02:16:20.620Z,17.20
2023-03-25T02:25:07.822Z,16.70
2023-03-25T02:33:49.045Z,16.90
2023-03-25T02:42:03.403Z,16.90
2023-03-25T02:50:13.190Z,16.90
2023-03-25T02:58:24.742Z,16.30
2023-03-25T03:06:32.187Z,16.80
2023-03-25T03:15:00.783Z,17.10
2023-03-25T03:23:12.624Z,17.00
2023-03-25T03:31:48.302Z,17.00
2023-03-25T03:40:04.678Z,16.40
2023-03-25T03:48:18.735Z,16.30
2023-03-25T03:56:28.511Z,16.10
2023-03-25T04:04:39.062Z,16.20
2023-03-25T04:12:47.948Z,16.40
2023-03-25T04:20:56.027Z,16.00
2023-03-25T04:29:02.105Z,16.20
2023-03-25T04:37:10.523Z,16.30
2023-03-25T04:45:17.222Z,16.30
2023-03-25T04:53:25.647Z,16.30
2023-03-25T05:01:33.440Z,16.20
2023-03-25T05:09:41.660Z,16.50
2023-03-25T05:17:47.803Z,16.70
2023-03-25T05:25:56.773Z,17.00
2023-03-25T05:34:08.794Z,17.70
2023-03-25T05:42:17.104Z,18.10
2023-03-25T05:50:22.831Z,18.10
2023-03-25T05:58:32.752Z,18.60
2023-03-25T06:06:38.392Z,19.10
2023-03-25T06:14:47.089Z,19.10
2023-03-25T06:22:55.315Z,19.30
2023-03-25T06:31:07.520Z,19.60
2023-03-25T06:39:14.481Z,20.30
2023-03-25T06:47:22.903Z,20.90
2023-03-25T06:55:28.739Z,20.80
2023-03-25T07:03:37.354Z,21.20
2023-03-25T07:12:34.966Z,21.40
2023-03-25T07:21:07.953Z,21.20
2023-03-25T07:29:19.281Z,21.10
2023-03-25T07:37:27.382Z,21.60
2023-03-25T07:45:43.511Z,22.00
2023-03-25T07:53:53.084Z,21.50
2023-03-25T08:02:01.193Z,21.40
2023-03-25T08:10:10.866Z,22.00
2023-03-25T08:18:16.480Z,22.20
2023-03-25T08:26:24.555Z,22.70
2023-03-25T08:34:40.382Z,23.20
2023-03-25T08:42:48.539Z,23.40
2023-03-25T08:50:55.523Z,23.70
2023-03-25T08:59:03.668Z,23.20
2023-03-25T09:07:12.664Z,24.10
2023-03-25T09:15:21.632Z,24.50
2023-03-25T09:23:33.935Z,24.70
2023-03-25T09:31:46.368Z,24.70
2023-03-25T09:39:52.160Z,24.60
2023-03-25T09:48:06.549Z,24.30
2023-03-25T09:56:19.528Z,23.70
2023-03-25T10:05:14.154Z,22.90
2023-03-25T10:13:27.661Z,22.90
2023-03-25T10:21:43.037Z,23.30
2023-03-25T10:29:54.995Z,24.10
2023-03-25T10:38:14.231Z,24.00
2023-03-25T10:46:29.677Z,23.80
2023-03-25T10:54:41.937Z,23.60
2023-03-25T11:02:48.789Z,23.20
2023-03-25T11:11:01.285Z,23.10
2023-03-25T11:19:08.912Z,22.80
2023-03-25T11:27:21.935Z,22.70
2023-03-25T11:35:29.981Z,22.70
2023-03-25T11:43:40.394Z,22.90
2023-03-25T11:51:47.423Z,22.70
2023-03-25T12:00:11.093Z,22.60
2023-03-25T12:08:19.982Z,22.60
2023-03-25T12:16:39.350Z,21.90
2023-03-25T12:25:08.312Z,21.50
2023-03-25T12:33:31.988Z,21.50
2023-03-25T12:41:51.695Z,21.50
2023-03-25T12:50:34.271Z,21.40
2023-03-25T12:59:05.621Z,21.70
2023-03-25T13:07:17.121Z,22.10
2023-03-25T13:15:27.596Z,22.10
2023-03-25T13:23:39.052Z,22.00
2023-03-25T13:31:48.586Z,21.70
2023-03-25T13:40:14.553Z,22.00
2023-03-25T13:48:24.215Z,22.40
2023-03-25T13:57:13.393Z,21.80
2023-03-25T14:06:05.026Z,21.40
2023-03-25T14:14:18.802Z,21.40
2023-03-25T14:22:27.342Z,21.20
2023-03-25T14:30:36.653Z,21.30
2023-03-25T14:39:00.205Z,21.00
2023-03-25T14:47:32.289Z,20.70
2023-03-25T14:55:43.882Z,20.40
2023-03-25T15:03:52.700Z,20.20
2023-03-25T15:12:00.762Z,20.00
2023-03-25T15:20:38.706Z,19.70
2023-03-25T15:29:04.616Z,19.50
2023-03-25T15:37:46.685Z,19.40
2023-03-25T15:46:26.267Z,19.30
2023-03-25T15:54:48.362Z,19.50
2023-03-25T16:03:02.065Z,19.50
2023-03-25T16:11:28.986Z,19.70
2023-03-25T16:19:41.872Z,19.30
2023-03-25T16:27:54.133Z,19.10
2023-03-25T16:36:02.288Z,18.90
2023-03-25T16:44:16.656Z,18.50
2023-03-25T16:52:26.758Z,18.30
2023-03-25T17:00:45.819Z,18.50
2023-03-25T17:08:53.774Z,18.30
2023-03-25T17:17:06.118Z,18.20
2023-03-25T17:25:28.470Z,18.00
2023-03-25T17:33:39.943Z,17.90
2023-03-25T17:41:45.674Z,18.00
2023-03-25T17:49:56.716Z,18.10
2023-03-25T17:58:02.286Z,17.90
2023-03-25T18:06:11.210Z,17.70
2023-03-25T18:14:17.001Z,17.70
2023-03-25T18:22:28.631Z,17.90
2023-03-25T18:30:41.243Z,17.80
2023-03-25T18:38:52.555Z,17.60
2023-03-25T18:47:00.168Z,17.60
2023-03-25T18:55:09.607Z,17.60
2023-03-25T19:03:15.647Z,17.50
2023-03-25T19:11:23.802Z,17.40
2023-03-25T19:19:29.401Z,17.60
2023-03-25T19:27:40.001Z,17.40
2023-03-25T19:35:54.503Z,17.30
2023-03-25T19:44:02.732Z,17.30
2023-03-25T19:52:09.355Z,17.20
2023-03-25T20:00:26.809Z,17.00
2023-03-25T20:08:32.998Z,17.00
2023-03-25T20:16:41.380Z,17.20
2023-03-25T20:24:47.761Z,17.20
2023-03-25T20:32:57.357Z,17.30
2023-03-25T20:41:03.822Z,17.00
2023-03-25T20:49:13.401Z,16.50
2023-03-25T20:57:19.438Z,16.50
2023-03-25T21:05:28.634Z,16.50
2023-03-25T21:13:36.380Z,16.70
2023-03-25T21:21:44.469Z,16.90
2023-03-25T21:29:50.261Z,16.90
2023-03-25T21:38:01.169Z,17.00
2023-03-25T21:46:10.506Z,16.90
2023-03-25T21:54:22.293Z,17.10
2023-03-25T22:02:30.107Z,17.30
2023-03-25T22:10:38.366Z,17.20
2023-03-25T22:18:44.255Z,17.10
2023-03-25T22:26:55.025Z,16.70
2023-03-25T22:35:00.583Z,17.00
2023-03-25T22:43:11.058Z,17.00
2023-03-25T22:51:18.597Z,17.10
2023-03-25T22:59:26.988Z,17.00
2023-03-25T23:07:35.488Z,17.10
2023-03-25T23:15:43.607Z,17.20
2023-03-25T23:23:53.401Z,17.30
2023-03-25T23:32:02.215Z,17.30
2023-03-25T23:40:12.938Z,17.10
2023-03-25T23:48:23.385Z,16.90
2023-03-25T23:56:28.882Z,16.80
